createdAt,value
2023-01-15T00:00:40.890Z,11.03
2023-01-15T00:01:40.508Z,11.05
2023-01-15T00:02:40.497Z,11.17
2023-01-15T00:03:40.406Z,11.11
2023-01-15T00:04:40.263Z,11.13
2023-01-15T00:05:40.179Z,11.24
2023-01-15T00:06:40.452Z,11.18
2023-01-15T00:07:40.016Z,11.31
2023-01-15T00:08:39.930Z,11.35
2023-01-15T00:09:39.864Z,11.21
2023-01-15T00:10:39.766Z,11.18
2023-01-15T00:11:39.688Z,11.32
2023-01-15T00:12:39.612Z,11.23
2023-01-15T00:13:39.525Z,11.28
2023-01-15T00:14:39.442Z,11.24
2023-01-15T00:15:39.388Z,11.21
2023-01-15T00:16:39.571Z,11.18
2023-01-15T00:17:39.441Z,11.18
2023-01-15T00:18:39.108Z,11.24
2023-01-15T00:19:39.043Z,11.21
2023-01-15T00:20:38.950Z,11.18
2023-01-15T00:21:38.868Z,11.18
2023-01-15T00:22:38.778Z,11.20
2023-01-15T00:23:38.698Z,11.28
2023-01-15T00:24:38.614Z,11.17
2023-01-15T00:25:38.533Z,11.31
2023-01-15T00:26:38.453Z,11.32
2023-01-15T00:27:38.371Z,11.26
2023-01-15T00:28:38.288Z,11.35
2023-01-15T00:29:38.207Z,11.32
2023-01-15T00:30:38.120Z,11.38
2023-01-15T00:31:38.040Z,11.34
2023-01-15T00:32:37.968Z,11.26
2023-01-15T00:33:37.875Z,11.31
2023-01-15T00:34:37.793Z,11.23
2023-01-15T00:35:37.708Z,11.17
2023-01-15T00:36:37.625Z,11.20
2023-01-15T00:37:37.549Z,11.21
2023-01-15T00:38:37.622Z,11.18
2023-01-15T00:39:37.395Z,11.26
2023-01-15T00:40:37.317Z,11.29
2023-01-15T00:41:37.219Z,11.29
2023-01-15T00:42:37.135Z,11.32
2023-01-15T00:43:37.055Z,11.28
2023-01-15T00:44:36.969Z,11.34
2023-01-15T00:45:36.888Z,11.31
2023-01-15T00:46:36.862Z,11.26
2023-01-15T00:47:36.722Z,11.29
2023-01-15T00:48:36.644Z,11.29
2023-01-15T00:49:36.561Z,11.39
2023-01-15T00:50:36.478Z,11.32
2023-01-15T00:51:36.410Z,11.36
2023-01-15T00:52:36.408Z,11.38
2023-01-15T00:53:36.241Z,11.38
2023-01-15T00:54:36.149Z,11.42
2023-01-15T00:55:36.066Z,11.49
2023-01-15T00:56:35.987Z,11.36
2023-01-15T00:57:35.901Z,11.36
2023-01-15T00:58:35.821Z,11.35
2023-01-15T00:59:35.739Z,11.38
2023-01-15T01:00:35.706Z,11.38
2023-01-15T01:01:35.731Z,11.47
2023-01-15T01:02:35.561Z,11.46
2023-01-15T01:03:35.411Z,11.46
2023-01-15T01:04:35.326Z,11.43
2023-01-15T01:05:35.244Z,11.35
2023-01-15T01:06:35.161Z,11.34
2023-01-15T01:07:35.081Z,11.35
2023-01-15T01:08:34.998Z,11.38
2023-01-15T01:09:34.914Z,11.38
2023-01-15T01:10:34.830Z,11.41
2023-01-15T01:11:34.763Z,11.35
2023-01-15T01:12:34.668Z,11.34
2023-01-15T01:13:34.598Z,11.23
2023-01-15T01:14:34.503Z,11.26
2023-01-15T01:15:34.422Z,11.35
2023-01-15T01:16:34.353Z,11.31
2023-01-15T01:17:34.262Z,11.26
2023-01-15T01:18:34.182Z,11.26
2023-01-15T01:19:34.096Z,11.34
2023-01-15T01:20:34.010Z,11.35
2023-01-15T01:21:33.929Z,11.31
2023-01-15T01:22:33.861Z,11.31
2023-01-15T01:23:33.769Z,11.31
2023-01-15T01:24:33.681Z,11.17
2023-01-15T01:25:33.599Z,11.31
2023-01-15T01:26:33.518Z,11.31
2023-01-15T01:27:33.437Z,11.28
2023-01-15T01:28:33.356Z,11.23
2023-01-15T01:29:33.275Z,11.28
2023-01-15T01:30:33.190Z,11.18
2023-01-15T01:31:33.182Z,11.28
2023-01-15T01:32:33.025Z,11.17
2023-01-15T01:33:32.942Z,11.31
2023-01-15T01:34:32.865Z,11.17
2023-01-15T01:35:32.780Z,11.24
2023-01-15T01:36:32.700Z,11.21
2023-01-15T01:37:32.615Z,11.17
2023-01-15T01:38:32.530Z,11.23
2023-01-15T01:39:32.452Z,11.14
2023-01-15T01:40:38.641Z,11.06
2023-01-15T01:41:32.284Z,11.13
2023-01-15T01:42:32.204Z,11.00
2023-01-15T01:43:32.127Z,11.03
2023-01-15T01:44:32.080Z,11.03
2023-01-15T01:45:31.997Z,11.11
2023-01-15T01:46:31.875Z,11.20
2023-01-15T01:47:31.801Z,11.21
2023-01-15T01:48:31.709Z,11.21
2023-01-15T01:49:31.627Z,11.21
2023-01-15T01:50:31.551Z,11.11
2023-01-15T01:51:31.468Z,11.16
2023-01-15T01:52:31.384Z,11.08
2023-01-15T01:53:31.298Z,11.06
2023-01-15T01:54:31.213Z,11.10
2023-01-15T01:55:31.333Z,11.05
2023-01-15T01:56:31.055Z,11.11
2023-01-15T01:57:30.971Z,10.99
2023-01-15T01:58:30.910Z,11.02
2023-01-15T01:59:30.806Z,11.08
2023-01-15T02:00:30.745Z,10.99
2023-01-15T02:01:30.819Z,11.06
2023-01-15T02:02:30.718Z,11.03
2023-01-15T02:03:30.778Z,10.98
2023-01-15T02:04:30.396Z,11.00
2023-01-15T02:05:30.312Z,11.00
2023-01-15T02:06:30.231Z,10.99
2023-01-15T02:07:30.149Z,10.98
2023-01-15T02:08:30.067Z,11.02
2023-01-15T02:09:29.983Z,10.92
2023-01-15T02:10:29.908Z,10.99
2023-01-15T02:11:29.818Z,10.98
2023-01-15T02:12:29.745Z,10.95
2023-01-15T02:13:29.663Z,10.98
2023-01-15T02:14:29.573Z,10.95
2023-01-15T02:15:29.513Z,11.00
2023-01-15T02:16:29.447Z,10.98
2023-01-15T02:17:29.329Z,10.93
2023-01-15T02:18:29.244Z,10.96
2023-01-15T02:19:29.170Z,10.95
2023-01-15T02:20:29.079Z,10.95
2023-01-15T02:21:28.999Z,10.96
2023-01-15T02:22:28.932Z,10.93
2023-01-15T02:23:28.840Z,10.93
2023-01-15T02:24:28.753Z,10.92
2023-01-15T02:25:28.676Z,11.00
2023-01-15T02:26:28.604Z,10.95
2023-01-15T02:27:28.507Z,11.03
2023-01-15T02:28:28.726Z,11.03
2023-01-15T02:29:28.358Z,11.03
2023-01-15T02:30:28.262Z,10.96
2023-01-15T02:31:28.217Z,10.88
2023-01-15T02:32:28.102Z,10.93
2023-01-15T02:33:28.016Z,10.95
2023-01-15T02:34:27.944Z,10.93
2023-01-15T02:35:27.862Z,11.00
2023-01-15T02:36:27.769Z,10.93
2023-01-15T02:37:27.694Z,10.93
2023-01-15T02:38:27.614Z,10.95
2023-01-15T02:39:27.536Z,10.95
2023-01-15T02:40:27.458Z,10.99
2023-01-15T02:41:27.544Z,10.93
2023-01-15T02:42:27.277Z,10.95
2023-01-15T02:43:27.195Z,10.91
2023-01-15T02:44:27.112Z,10.99
2023-01-15T02:45:27.323Z,10.91
2023-01-15T02:46:26.957Z,10.88
2023-01-15T02:47:26.874Z,10.99
2023-01-15T02:48:26.785Z,10.96
2023-01-15T02:49:26.741Z,10.98
2023-01-15T02:50:26.620Z,10.95
2023-01-15T02:51:26.541Z,11.08
2023-01-15T02:52:26.469Z,10.96
2023-01-15T02:53:26.377Z,10.98
2023-01-15T02:54:26.314Z,11.06
2023-01-15T02:55:26.219Z,11.00
2023-01-15T02:56:26.127Z,10.59
2023-01-15T02:57:26.047Z,10.36
2023-01-15T02:58:25.964Z,10.22
2023-01-15T02:59:25.884Z,10.16
2023-01-15T03:00:25.798Z,10.21
2023-01-15T03:01:25.808Z,10.15
2023-01-15T03:02:25.680Z,10.15
2023-01-15T03:03:25.555Z,10.03
2023-01-15T03:04:25.468Z,10.04
2023-01-15T03:05:25.393Z,9.96
2023-01-15T03:06:25.303Z,9.92
2023-01-15T03:07:25.228Z,9.88
2023-01-15T03:08:25.290Z,9.86
2023-01-15T03:09:25.058Z,9.89
2023-01-15T03:10:24.976Z,9.83
2023-01-15T03:11:24.893Z,9.83
2023-01-15T03:12:24.827Z,9.82
2023-01-15T03:13:24.731Z,9.71
2023-01-15T03:14:24.645Z,9.82
2023-01-15T03:15:24.572Z,9.70
2023-01-15T03:16:24.511Z,9.86
2023-01-15T03:17:24.395Z,9.80
2023-01-15T03:18:24.313Z,9.71
2023-01-15T03:19:24.233Z,9.70
2023-01-15T03:20:24.149Z,9.71
2023-01-15T03:21:24.069Z,9.79
2023-01-15T03:22:23.993Z,9.67
2023-01-15T03:23:23.903Z,9.71
2023-01-15T03:24:23.818Z,9.68
2023-01-15T03:25:23.744Z,9.75
2023-01-15T03:26:23.652Z,9.71
2023-01-15T03:27:23.588Z,9.72
2023-01-15T03:28:23.485Z,9.67
2023-01-15T03:29:23.403Z,9.68
2023-01-15T03:30:23.319Z,9.60
2023-01-15T03:31:23.237Z,9.63
2023-01-15T03:32:23.166Z,9.65
2023-01-15T03:33:23.077Z,9.68
2023-01-15T03:34:22.992Z,9.55
2023-01-15T03:35:22.909Z,9.55
2023-01-15T03:36:22.826Z,9.63
2023-01-15T03:37:22.744Z,9.63
2023-01-15T03:38:22.658Z,9.58
2023-01-15T03:39:22.578Z,9.49
2023-01-15T03:40:22.542Z,9.47
2023-01-15T03:41:22.661Z,9.47
2023-01-15T03:42:22.330Z,9.49
2023-01-15T03:43:22.244Z,9.46
2023-01-15T03:44:22.165Z,9.45
2023-01-15T03:45:22.082Z,9.50
2023-01-15T03:46:22.173Z,9.50
2023-01-15T03:47:21.916Z,9.53
2023-01-15T03:48:21.892Z,9.52
2023-01-15T03:49:21.750Z,9.43
2023-01-15T03:50:21.665Z,9.45
2023-01-15T03:51:21.583Z,9.49
2023-01-15T03:52:21.757Z,9.40
2023-01-15T03:53:21.421Z,9.47
2023-01-15T03:54:21.415Z,9.43
2023-01-15T03:55:21.253Z,9.46
2023-01-15T03:56:21.169Z,9.43
2023-01-15T03:57:21.093Z,9.40
2023-01-15T03:58:21.002Z,9.45
2023-01-15T03:59:20.935Z,9.38
2023-01-15T04:00:20.864Z,9.40
2023-01-15T04:01:20.981Z,9.46
2023-01-15T04:02:20.711Z,9.46
2023-01-15T04:03:20.618Z,9.42
2023-01-15T04:04:20.732Z,9.42
2023-01-15T04:05:20.434Z,9.46
2023-01-15T04:06:20.345Z,9.46
2023-01-15T04:07:20.258Z,9.40
2023-01-15T04:08:20.180Z,9.35
2023-01-15T04:09:20.100Z,9.34
2023-01-15T04:10:20.021Z,9.20
2023-01-15T04:11:19.931Z,9.29
2023-01-15T04:12:20.100Z,9.28
2023-01-15T04:13:19.763Z,9.22
2023-01-15T04:14:19.682Z,9.27
2023-01-15T04:15:19.607Z,9.19
2023-01-15T04:16:19.515Z,9.16
2023-01-15T04:17:19.741Z,9.22
2023-01-15T04:18:19.355Z,9.22
2023-01-15T04:19:19.271Z,9.13
2023-01-15T04:20:19.190Z,9.03
2023-01-15T04:21:19.113Z,9.10
2023-01-15T04:22:19.020Z,8.97
2023-01-15T04:23:18.945Z,9.03
2023-01-15T04:24:18.853Z,8.90
2023-01-15T04:25:18.770Z,8.84
2023-01-15T04:26:18.689Z,8.98
2023-01-15T04:27:18.616Z,8.95
2023-01-15T04:28:18.520Z,8.91
2023-01-15T04:29:18.440Z,8.88
2023-01-15T04:30:18.355Z,8.90
2023-01-15T04:31:18.307Z,8.80
2023-01-15T04:32:18.187Z,8.82
2023-01-15T04:33:18.107Z,8.80
2023-01-15T04:34:18.031Z,8.75
2023-01-15T04:35:17.946Z,8.79
2023-01-15T04:36:17.858Z,8.79
2023-01-15T04:37:17.774Z,8.80
2023-01-15T04:38:17.693Z,8.80
2023-01-15T04:39:17.609Z,8.69
2023-01-15T04:40:17.523Z,8.70
2023-01-15T04:41:17.443Z,8.69
2023-01-15T04:42:17.360Z,8.68
2023-01-15T04:43:17.279Z,8.70
2023-01-15T04:44:17.209Z,8.70
2023-01-15T04:45:17.113Z,8.68
2023-01-15T04:46:17.053Z,8.66
2023-01-15T04:47:16.943Z,8.65
2023-01-15T04:48:16.860Z,8.75
2023-01-15T04:49:16.778Z,8.75
2023-01-15T04:50:16.697Z,8.55
2023-01-15T04:51:16.611Z,8.65
2023-01-15T04:52:16.530Z,8.54
2023-01-15T04:53:16.444Z,8.55
2023-01-15T04:54:16.413Z,8.61
2023-01-15T04:55:16.282Z,8.58
2023-01-15T04:56:16.201Z,8.57
2023-01-15T04:57:16.114Z,8.61
2023-01-15T04:58:16.031Z,8.47
2023-01-15T04:59:15.950Z,8.44
2023-01-15T05:00:15.863Z,8.42
2023-01-15T05:01:15.881Z,8.39
2023-01-15T05:02:15.976Z,8.39
2023-01-15T05:03:15.617Z,8.33
2023-01-15T05:04:15.570Z,8.37
2023-01-15T05:05:15.448Z,8.36
2023-01-15T05:06:15.404Z,8.30
2023-01-15T05:07:15.287Z,8.22
2023-01-15T05:08:15.209Z,8.33
2023-01-15T05:09:15.120Z,8.32
2023-01-15T05:10:15.043Z,8.22
2023-01-15T05:11:14.950Z,8.25
2023-01-15T05:12:14.873Z,8.22
2023-01-15T05:13:14.786Z,8.17
2023-01-15T05:14:14.702Z,8.18
2023-01-15T05:15:14.638Z,8.27
2023-01-15T05:16:14.622Z,8.18
2023-01-15T05:17:14.455Z,8.25
2023-01-15T05:18:14.365Z,8.09
2023-01-15T05:19:14.292Z,8.14
2023-01-15T05:20:14.247Z,8.07
2023-01-15T05:21:14.118Z,8.00
2023-01-15T05:22:14.029Z,8.06
2023-01-15T05:23:14.107Z,8.03
2023-01-15T05:24:13.887Z,8.00
2023-01-15T05:25:13.792Z,8.04
2023-01-15T05:26:13.692Z,8.01
2023-01-15T05:27:13.615Z,8.09
2023-01-15T05:28:13.732Z,7.96
2023-01-15T05:29:13.849Z,7.96
2023-01-15T05:30:13.380Z,7.85
2023-01-15T05:31:13.336Z,7.86
2023-01-15T05:32:13.195Z,7.86
2023-01-15T05:33:13.108Z,7.85
2023-01-15T05:34:13.051Z,7.86
2023-01-15T05:35:12.942Z,7.90
2023-01-15T05:36:12.855Z,7.85
2023-01-15T05:37:12.775Z,7.72
2023-01-15T05:38:12.845Z,7.70
2023-01-15T05:39:12.613Z,7.76
2023-01-15T05:40:12.526Z,7.78
2023-01-15T05:41:12.440Z,7.76
2023-01-15T05:42:12.353Z,7.75
2023-01-15T05:43:12.272Z,7.70
2023-01-15T05:44:12.194Z,7.70
2023-01-15T05:45:12.101Z,7.70
2023-01-15T05:46:12.094Z,7.70
2023-01-15T05:47:11.940Z,7.63
2023-01-15T05:48:11.855Z,7.70
2023-01-15T05:49:11.767Z,7.52
2023-01-15T05:50:11.680Z,7.55
2023-01-15T05:51:11.596Z,7.55
2023-01-15T05:52:11.583Z,7.49
2023-01-15T05:53:11.428Z,7.45
2023-01-15T05:54:11.343Z,7.53
2023-01-15T05:55:11.260Z,7.55
2023-01-15T05:56:11.174Z,7.53
2023-01-15T05:57:11.092Z,7.49
2023-01-15T05:58:11.004Z,7.45
2023-01-15T05:59:11.023Z,7.42
2023-01-15T06:00:11.139Z,7.48
2023-01-15T06:01:10.819Z,7.44
2023-01-15T06:02:10.667Z,7.44
2023-01-15T06:03:10.584Z,7.44
2023-01-15T06:04:10.501Z,7.44
2023-01-15T06:05:10.416Z,7.48
2023-01-15T06:06:10.337Z,7.45
2023-01-15T06:07:10.244Z,7.44
2023-01-15T06:08:10.163Z,7.42
2023-01-15T06:09:10.128Z,7.48
2023-01-15T06:10:09.997Z,7.34
2023-01-15T06:11:09.910Z,7.38
2023-01-15T06:12:09.824Z,7.26
2023-01-15T06:13:09.740Z,7.29
2023-01-15T06:14:09.657Z,7.27
2023-01-15T06:15:09.580Z,7.30
2023-01-15T06:16:09.600Z,7.37
2023-01-15T06:17:09.403Z,7.37
2023-01-15T06:18:09.322Z,7.29
2023-01-15T06:19:09.250Z,7.24
2023-01-15T06:20:09.151Z,7.12
2023-01-15T06:21:09.065Z,7.09
2023-01-15T06:22:10.925Z,6.98
2023-01-15T06:23:08.895Z,6.94
2023-01-15T06:24:08.816Z,6.80
2023-01-15T06:25:08.739Z,6.83
2023-01-15T06:26:08.643Z,6.83
2023-01-15T06:27:08.567Z,6.72
2023-01-15T06:28:08.484Z,6.81
2023-01-15T06:29:08.394Z,6.87
2023-01-15T06:30:08.309Z,6.87
2023-01-15T06:31:08.339Z,6.91
2023-01-15T06:32:08.144Z,6.87
2023-01-15T06:33:08.065Z,6.94
2023-01-15T06:34:07.974Z,6.81
2023-01-15T06:35:07.889Z,6.91
2023-01-15T06:36:08.050Z,6.91
2023-01-15T06:37:07.718Z,6.87
2023-01-15T06:38:07.633Z,6.91
2023-01-15T06:39:07.953Z,6.88
2023-01-15T06:40:07.463Z,6.88
2023-01-15T06:41:07.629Z,6.81
2023-01-15T06:42:07.300Z,6.76
2023-01-15T06:43:07.211Z,6.76
2023-01-15T06:44:07.127Z,6.73
2023-01-15T06:45:07.048Z,6.75
2023-01-15T06:46:06.959Z,6.78
2023-01-15T06:47:06.892Z,6.75
2023-01-15T06:48:06.849Z,6.72
2023-01-15T06:49:06.705Z,6.65
2023-01-15T06:50:06.625Z,6.47
2023-01-15T06:51:06.541Z,6.63
2023-01-15T06:52:06.455Z,6.70
2023-01-15T06:53:06.379Z,6.68
2023-01-15T06:54:06.288Z,6.55
2023-01-15T06:55:06.203Z,6.50
2023-01-15T06:56:06.129Z,6.63
2023-01-15T06:57:06.032Z,6.63
2023-01-15T06:58:05.953Z,6.66
2023-01-15T06:59:05.864Z,6.69
2023-01-15T07:00:05.783Z,6.69
2023-01-15T07:01:05.904Z,6.66
2023-01-15T07:02:05.627Z,6.63
2023-01-15T07:03:05.530Z,6.62
2023-01-15T07:04:05.499Z,6.57
2023-01-15T07:05:05.361Z,6.62
2023-01-15T07:06:05.276Z,6.62
2023-01-15T07:07:05.343Z,6.62
2023-01-15T07:08:05.108Z,6.66
2023-01-15T07:09:05.026Z,6.69
2023-01-15T07:10:04.940Z,6.70
2023-01-15T07:11:04.856Z,6.62
2023-01-15T07:12:04.771Z,6.69
2023-01-15T07:13:04.697Z,6.76
2023-01-15T07:14:04.602Z,6.68
2023-01-15T07:15:04.517Z,6.69
2023-01-15T07:16:04.541Z,6.75
2023-01-15T07:17:04.348Z,6.73
2023-01-15T07:18:04.264Z,6.70
2023-01-15T07:19:04.184Z,6.76
2023-01-15T07:20:04.098Z,6.78
2023-01-15T07:21:04.027Z,6.86
2023-01-15T07:22:03.941Z,6.72
2023-01-15T07:23:03.846Z,6.72
2023-01-15T07:24:03.771Z,6.73
2023-01-15T07:25:03.675Z,6.70
2023-01-15T07:26:03.592Z,6.72
2023-01-15T07:27:03.510Z,6.72
2023-01-15T07:28:03.424Z,6.78
2023-01-15T07:29:03.346Z,6.76
2023-01-15T07:30:03.353Z,6.78
2023-01-15T07:31:03.261Z,6.87
2023-01-15T07:32:03.087Z,6.88
2023-01-15T07:33:03.151Z,6.88
2023-01-15T07:34:02.935Z,6.88
2023-01-15T07:35:02.833Z,6.93
2023-01-15T07:36:02.750Z,6.81
2023-01-15T07:37:02.672Z,6.81
2023-01-15T07:38:02.582Z,6.75
2023-01-15T07:39:02.500Z,6.81
2023-01-15T07:40:02.413Z,6.86
2023-01-15T07:41:02.329Z,6.84
2023-01-15T07:42:02.248Z,6.86
2023-01-15T07:43:02.164Z,6.83
2023-01-15T07:44:02.076Z,6.86
2023-01-15T07:45:02.001Z,6.78
2023-01-15T07:46:01.993Z,6.81
2023-01-15T07:47:01.824Z,6.75
2023-01-15T07:48:01.750Z,6.78
2023-01-15T07:49:01.657Z,6.84
2023-01-15T07:50:01.588Z,6.96
2023-01-15T07:51:01.526Z,6.93
2023-01-15T07:52:01.411Z,6.84
2023-01-15T07:53:01.323Z,6.91
2023-01-15T07:54:01.239Z,6.93
2023-01-15T07:55:01.159Z,6.93
2023-01-15T07:56:01.075Z,6.83
2023-01-15T07:57:01.035Z,6.88
2023-01-15T07:58:00.906Z,6.96
2023-01-15T07:59:00.818Z,6.99
2023-01-15T08:00:00.736Z,6.98
2023-01-15T08:01:00.805Z,6.96
2023-01-15T08:02:00.740Z,7.02
2023-01-15T08:03:00.481Z,7.02
2023-01-15T08:04:00.478Z,7.02
2023-01-15T08:05:00.319Z,7.05
2023-01-15T08:06:00.240Z,7.09
2023-01-15T08:07:00.148Z,7.01
2023-01-15T08:08:00.083Z,7.03
2023-01-15T08:08:59.979Z,7.09
2023-01-15T08:09:59.897Z,7.12
2023-01-15T08:10:59.812Z,7.17
2023-01-15T08:11:59.731Z,7.08
2023-01-15T08:12:59.646Z,6.98
2023-01-15T08:13:59.563Z,6.88
2023-01-15T08:14:59.478Z,6.87
2023-01-15T08:15:59.397Z,6.91
2023-01-15T08:16:59.566Z,6.91
2023-01-15T08:17:59.230Z,6.88
2023-01-15T08:18:59.264Z,6.84
2023-01-15T08:19:59.330Z,6.80
2023-01-15T08:20:58.979Z,6.87
2023-01-15T08:21:58.893Z,6.88
2023-01-15T08:22:58.830Z,6.88
2023-01-15T08:23:58.723Z,6.80
2023-01-15T08:24:58.670Z,6.90
2023-01-15T08:25:58.706Z,6.96
2023-01-15T08:26:58.471Z,6.91
2023-01-15T08:27:58.387Z,6.80
2023-01-15T08:28:59.362Z,6.91
2023-01-15T08:29:58.218Z,6.81
2023-01-15T08:30:58.133Z,6.90
2023-01-15T08:31:58.059Z,6.90
2023-01-15T08:32:57.967Z,6.91
2023-01-15T08:33:57.883Z,6.88
2023-01-15T08:34:57.800Z,6.90
2023-01-15T08:35:57.715Z,6.84
2023-01-15T08:36:57.629Z,6.88
2023-01-15T08:37:57.774Z,6.93
2023-01-15T08:38:57.460Z,6.88
2023-01-15T08:39:57.379Z,6.80
2023-01-15T08:40:57.302Z,6.83
2023-01-15T08:41:57.207Z,6.91
2023-01-15T08:42:57.124Z,6.76
2023-01-15T08:43:57.039Z,6.83
2023-01-15T08:44:56.952Z,6.86
2023-01-15T08:45:56.952Z,6.78
2023-01-15T08:46:56.834Z,6.78
2023-01-15T08:47:56.702Z,6.88
2023-01-15T08:48:56.622Z,6.78
2023-01-15T08:49:56.532Z,6.87
2023-01-15T08:50:56.472Z,6.94
2023-01-15T08:51:56.369Z,6.91
2023-01-15T08:52:56.277Z,6.84
2023-01-15T08:53:56.200Z,6.94
2023-01-15T08:54:56.120Z,6.84
2023-01-15T08:55:56.024Z,6.84
2023-01-15T08:56:55.938Z,6.83
2023-01-15T08:57:55.855Z,6.73
2023-01-15T08:58:55.773Z,6.73
2023-01-15T08:59:55.686Z,6.76
2023-01-15T09:00:55.696Z,6.76
2023-01-15T09:01:55.840Z,6.78
2023-01-15T09:02:55.438Z,6.73
2023-01-15T09:03:55.349Z,6.70
2023-01-15T09:04:55.350Z,6.76
2023-01-15T09:05:55.182Z,6.72
2023-01-15T09:06:55.096Z,6.65
2023-01-15T09:07:55.018Z,6.65
2023-01-15T09:08:54.924Z,6.81
2023-01-15T09:09:54.849Z,6.70
2023-01-15T09:10:54.757Z,6.73
2023-01-15T09:11:54.673Z,6.76
2023-01-15T09:12:54.789Z,6.72
2023-01-15T09:13:54.530Z,6.73
2023-01-15T09:14:56.941Z,6.73
2023-01-15T09:15:54.331Z,6.75
2023-01-15T09:16:54.403Z,6.72
2023-01-15T09:17:54.160Z,6.70
2023-01-15T09:18:54.074Z,6.65
2023-01-15T09:19:53.994Z,6.70
2023-01-15T09:20:53.904Z,6.65
2023-01-15T09:21:53.822Z,6.70
2023-01-15T09:22:53.748Z,6.70
2023-01-15T09:23:53.650Z,6.63
2023-01-15T09:24:53.566Z,6.73
2023-01-15T09:25:53.496Z,6.72
2023-01-15T09:26:53.480Z,6.69
2023-01-15T09:27:53.462Z,6.70
2023-01-15T09:28:53.228Z,6.72
2023-01-15T09:29:53.145Z,6.65
2023-01-15T09:30:53.190Z,6.73
2023-01-15T09:31:52.975Z,6.75
2023-01-15T09:32:52.890Z,6.73
2023-01-15T09:33:52.805Z,6.76
2023-01-15T09:34:52.729Z,6.70
2023-01-15T09:35:52.633Z,6.72
2023-01-15T09:36:52.548Z,6.66
2023-01-15T09:37:52.462Z,6.76
2023-01-15T09:38:52.378Z,6.66
2023-01-15T09:39:52.293Z,6.69
2023-01-15T09:40:52.218Z,6.72
2023-01-15T09:41:52.125Z,6.63
2023-01-15T09:42:52.040Z,6.72
2023-01-15T09:43:51.955Z,6.68
2023-01-15T09:44:52.172Z,6.75
2023-01-15T09:45:51.804Z,6.69
2023-01-15T09:46:51.699Z,6.68
2023-01-15T09:47:51.613Z,6.72
2023-01-15T09:48:51.529Z,6.69
2023-01-15T09:49:51.492Z,6.76
2023-01-15T09:50:51.362Z,6.76
2023-01-15T09:51:51.273Z,6.76
2023-01-15T09:52:51.224Z,6.75
2023-01-15T09:53:51.103Z,6.72
2023-01-15T09:54:51.575Z,6.81
2023-01-15T09:55:50.933Z,6.86
2023-01-15T09:56:50.850Z,6.78
2023-01-15T09:57:50.770Z,6.83
2023-01-15T09:58:50.686Z,6.88
2023-01-15T09:59:50.826Z,6.88
2023-01-15T10:00:50.511Z,6.84
2023-01-15T10:01:50.427Z,6.83
2023-01-15T10:02:50.390Z,6.91
2023-01-15T10:03:50.305Z,6.88
2023-01-15T10:04:50.171Z,6.83
2023-01-15T10:05:50.088Z,6.84
2023-01-15T10:06:50.004Z,6.84
2023-01-15T10:07:49.917Z,6.86
2023-01-15T10:08:49.831Z,6.78
2023-01-15T10:09:49.750Z,6.87
2023-01-15T10:10:49.661Z,6.84
2023-01-15T10:11:49.580Z,6.73
2023-01-15T10:12:49.492Z,6.70
2023-01-15T10:13:49.413Z,6.76
2023-01-15T10:14:49.324Z,6.76
2023-01-15T10:15:49.316Z,6.69
2023-01-15T10:16:49.155Z,6.65
2023-01-15T10:17:49.068Z,6.54
2023-01-15T10:18:48.994Z,6.57
2023-01-15T10:19:49.149Z,6.52
2023-01-15T10:20:48.818Z,6.59
2023-01-15T10:21:48.730Z,6.54
2023-01-15T10:23:48.561Z,6.65
2023-01-15T10:24:48.476Z,6.63
2023-01-15T10:25:48.393Z,6.69
2023-01-15T10:26:48.324Z,6.72
2023-01-15T10:27:48.221Z,6.72
2023-01-15T10:28:48.141Z,6.68
2023-01-15T10:29:48.053Z,6.66
2023-01-15T10:30:48.022Z,6.65
2023-01-15T10:31:47.885Z,6.69
2023-01-15T10:33:01.021Z,6.68
2023-01-15T10:33:47.713Z,6.54
2023-01-15T10:34:47.629Z,6.62
2023-01-15T10:35:47.542Z,6.63
2023-01-15T10:36:47.460Z,6.65
2023-01-15T10:37:47.374Z,6.65
2023-01-15T10:38:47.292Z,6.54
2023-01-15T10:39:47.205Z,6.68
2023-01-15T10:40:47.129Z,6.68
2023-01-15T10:41:47.033Z,6.65
2023-01-15T10:42:46.951Z,6.68
2023-01-15T10:43:46.868Z,6.73
2023-01-15T10:44:46.782Z,6.68
2023-01-15T10:45:47.059Z,6.73
2023-01-15T10:46:46.610Z,6.65
2023-01-15T10:47:46.523Z,6.66
2023-01-15T10:48:46.442Z,6.63
2023-01-15T10:49:46.353Z,6.65
2023-01-15T10:50:46.275Z,6.59
2023-01-15T10:51:46.186Z,6.63
2023-01-15T10:52:46.098Z,6.52
2023-01-15T10:53:46.017Z,6.50
2023-01-15T10:54:45.944Z,6.50
2023-01-15T10:55:45.847Z,6.57
2023-01-15T10:56:45.813Z,6.51
2023-01-15T10:57:45.674Z,6.47
2023-01-15T10:58:45.682Z,6.50
2023-01-15T10:59:45.806Z,6.45
2023-01-15T11:00:45.418Z,6.37
2023-01-15T11:01:45.454Z,6.30
2023-01-15T11:02:45.301Z,6.27
2023-01-15T11:03:45.177Z,6.26
2023-01-15T11:04:45.778Z,6.15
2023-01-15T11:05:44.992Z,6.15
2023-01-15T11:06:44.908Z,6.13
2023-01-15T11:08:06.530Z,6.15
2023-01-15T11:09:12.392Z,6.17
2023-01-15T11:09:44.657Z,6.08
2023-01-15T11:10:44.566Z,6.08
2023-01-15T11:11:44.486Z,6.06
2023-01-15T11:12:44.394Z,6.15
2023-01-15T11:13:44.312Z,6.06
2023-01-15T11:14:44.227Z,6.15
2023-01-15T11:15:44.218Z,6.08
2023-01-15T11:16:44.358Z,6.11
2023-01-15T11:17:43.966Z,6.13
2023-01-15T11:18:43.880Z,6.15
2023-01-15T11:19:43.795Z,6.15
2023-01-15T11:20:43.709Z,6.10
2023-01-15T11:21:43.625Z,6.06
2023-01-15T11:22:44.937Z,6.07
2023-01-15T11:23:43.454Z,6.10
2023-01-15T11:24:43.367Z,6.04
2023-01-15T11:25:43.293Z,5.93
2023-01-15T11:26:43.198Z,5.97
2023-01-15T11:27:43.139Z,6.00
2023-01-15T11:28:43.099Z,5.92
2023-01-15T11:29:42.942Z,5.95
2023-01-15T11:30:42.857Z,5.97
2023-01-15T11:31:42.769Z,6.00
2023-01-15T11:32:42.689Z,5.95
2023-01-15T11:33:42.596Z,6.00
2023-01-15T11:34:42.514Z,5.99
2023-01-15T11:35:42.426Z,5.88
2023-01-15T11:36:42.343Z,5.96
2023-01-15T11:37:42.255Z,5.92
2023-01-15T11:38:42.174Z,5.80
2023-01-15T11:39:42.084Z,5.78
2023-01-15T11:40:42.002Z,5.77
2023-01-15T11:41:42.015Z,5.80
2023-01-15T11:42:41.834Z,5.81
2023-01-15T11:43:41.743Z,5.75
2023-01-15T11:44:41.657Z,5.92
2023-01-15T11:45:41.572Z,5.86
2023-01-15T11:46:41.571Z,5.81
2023-01-15T11:47:43.111Z,5.83
2023-01-15T11:48:41.316Z,5.78
2023-01-15T11:49:41.227Z,5.75
2023-01-15T11:50:41.152Z,5.80
2023-01-15T11:51:41.057Z,5.74
2023-01-15T11:52:40.974Z,5.63
2023-01-15T11:53:40.887Z,5.72
2023-01-15T11:54:40.815Z,5.63
2023-01-15T11:55:40.712Z,5.65
2023-01-15T11:56:40.631Z,5.56
2023-01-15T11:57:40.546Z,5.67
2023-01-15T11:58:40.767Z,5.50
2023-01-15T11:59:40.375Z,5.63
2023-01-15T12:00:40.291Z,5.62
2023-01-15T12:01:40.197Z,5.56
2023-01-15T12:02:40.116Z,5.62
2023-01-15T12:03:40.147Z,5.67
2023-01-15T12:04:40.007Z,5.65
2023-01-15T12:05:40.055Z,5.67
2023-01-15T12:06:39.776Z,5.57
2023-01-15T12:07:39.696Z,5.62
2023-01-15T12:08:39.612Z,5.56
2023-01-15T12:09:39.512Z,5.68
2023-01-15T12:10:39.432Z,5.68
2023-01-15T12:11:39.342Z,5.65
2023-01-15T12:12:39.258Z,5.67
2023-01-15T12:13:39.175Z,5.63
2023-01-15T12:14:39.092Z,5.70
2023-01-15T12:15:38.999Z,5.74
2023-01-15T12:16:39.016Z,5.81
2023-01-15T12:17:38.831Z,5.83
2023-01-15T12:18:38.751Z,5.86
2023-01-15T12:19:38.657Z,5.92
2023-01-15T12:20:38.573Z,5.95
2023-01-15T12:21:38.484Z,6.00
2023-01-15T12:22:38.401Z,5.86
2023-01-15T12:23:38.315Z,5.89
2023-01-15T12:24:38.230Z,5.83
2023-01-15T12:25:38.145Z,5.85
2023-01-15T12:26:38.071Z,5.80
2023-01-15T12:27:37.982Z,5.74
2023-01-15T12:28:37.887Z,5.71
2023-01-15T12:29:37.800Z,5.81
2023-01-15T12:30:37.723Z,5.83
2023-01-15T12:31:37.710Z,5.93
2023-01-15T12:32:37.702Z,5.88
2023-01-15T12:33:37.473Z,5.96
2023-01-15T12:34:37.377Z,6.11
2023-01-15T12:35:37.308Z,6.24
2023-01-15T12:36:37.202Z,6.34
2023-01-15T12:37:37.116Z,6.33
2023-01-15T12:38:37.035Z,6.37
2023-01-15T12:39:36.951Z,6.36
2023-01-15T12:40:36.869Z,6.26
2023-01-15T12:41:36.777Z,6.34
2023-01-15T12:42:36.694Z,6.22
2023-01-15T12:43:36.604Z,6.14
2023-01-15T12:44:38.442Z,6.10
2023-01-15T12:45:36.438Z,5.97
2023-01-15T12:46:36.379Z,5.97
2023-01-15T12:47:36.266Z,5.95
2023-01-15T12:48:36.180Z,6.04
2023-01-15T12:49:36.092Z,5.95
2023-01-15T12:50:36.061Z,6.00
2023-01-15T12:51:35.926Z,6.08
2023-01-15T12:52:35.841Z,6.18
2023-01-15T12:53:35.750Z,6.29
2023-01-15T12:54:35.673Z,6.33
2023-01-15T12:55:35.586Z,6.34
2023-01-15T12:56:35.565Z,6.37
2023-01-15T12:57:35.413Z,6.50
2023-01-15T12:58:35.340Z,6.52
2023-01-15T12:59:35.239Z,6.68
2023-01-15T13:00:35.179Z,6.68
2023-01-15T13:01:35.132Z,6.68
2023-01-15T13:02:35.030Z,6.50
2023-01-15T13:03:34.901Z,6.62
2023-01-15T13:04:34.817Z,6.72
2023-01-15T13:05:34.731Z,6.54
2023-01-15T13:06:34.655Z,6.66
2023-01-15T13:07:34.565Z,6.59
2023-01-15T13:08:34.486Z,6.54
2023-01-15T13:09:34.394Z,6.45
2023-01-15T13:10:34.314Z,6.34
2023-01-15T13:11:34.223Z,6.29
2023-01-15T13:12:34.140Z,6.30